Falconbridge, Canada
Current Conditions -  °F | °C
As of 5:00 AM on Tuesday 27 Jan 2015 (Local Time) from CYSB Reporting Station
Few Clouds Few Clouds  
Wind Chill: -21°   Ceiling: Unl
Heat Index: -4°   Visibility: 15mi
Dew Point: -9°   Wind: 10mph
Humidity: 78%   Direction: 40°NE
Pressure: 30.1"   Gusts: NA
Location:  46.58°N, 80.81°W
Report Text: CYSB 271000Z 04009KT 15SM FEW170 M20/M23 A3010 RMK AC2 SLP226
Loading
Personal Weather Stations






























Interactive Weather Map New forecast layout! Learn more

10-Day Weather Forecast

Advertisements
Track Severe Weather on mobile